Time;durP1;ratioP1;P1;durP2;ratioP2;P2;SDS_P1;SDS_P2;PMS_P1;PMS_P2;Temp;Humidity;BMP_temperature;BMP_pressure;BME280_temperature;BME280_humidity;BME280_pressure;Samples;Min_cycle;Max_cycle;Signal;HPM_P1;HPM_P2
2022/06/29 03:02:57;;;;;;;0.70;0.70;;;20.50;78.70;;;;;;6195182;22;1192621;-73
2022/06/29 03:05:24;;;;;;;0.70;0.70;;;20.40;78.80;;;;;;6278218;22;20224;-74
2022/06/29 03:07:51;;;;;;;0.80;0.80;;;20.40;78.90;;;;;;6277782;22;20401;-74
2022/06/29 03:10:17;;;;;;;0.73;0.73;;;20.40;78.70;;;;;;6277787;22;20405;-74
2022/06/29 03:12:44;;;;;;;0.80;0.73;;;20.40;78.80;;;;;;6247555;22;20488;-74
2022/06/29 03:15:11;;;;;;;0.70;0.70;;;20.40;79.00;;;;;;6248810;23;20406;-74
2022/06/29 03:17:38;;;;;;;0.70;0.70;;;20.40;79.00;;;;;;6248124;23;20402;-74
2022/06/29 03:20:07;;;;;;;0.80;0.63;;;20.40;78.90;;;;;;6247020;23;20402;-74
2022/06/29 03:22:34;;;;;;;0.80;0.80;;;20.40;78.90;;;;;;6246935;22;20488;-74
2022/06/29 03:25:01;;;;;;;0.80;0.70;;;20.40;78.90;;;;;;6247042;23;20781;-72
2022/06/29 03:27:27;;;;;;;0.80;0.73;;;20.40;78.90;;;;;;6246999;23;20406;-71
2022/06/29 03:29:54;;;;;;;0.70;0.70;;;20.40;79.00;;;;;;6246912;23;20406;-71
2022/06/29 03:32:20;;;;;;;0.70;0.70;;;20.40;78.90;;;;;;6246866;22;20418;-71
2022/06/29 03:34:47;;;;;;;0.77;0.77;;;20.40;78.70;;;;;;6246900;23;20406;-71
2022/06/29 03:37:15;;;;;;;0.80;0.80;;;20.50;78.70;;;;;;6246862;23;20418;-72
2022/06/29 03:39:44;;;;;;;0.70;0.70;;;20.50;78.60;;;;;;6246903;23;20458;-72
2022/06/29 03:42:10;;;;;;;0.70;0.70;;;20.40;78.60;;;;;;6246703;22;20468;-71
2022/06/29 03:44:38;;;;;;;0.80;0.80;;;20.40;78.70;;;;;;6246448;23;20433;-71
2022/06/29 03:47:04;;;;;;;0.70;0.60;;;20.40;78.80;;;;;;6246773;23;20417;-71
2022/06/29 03:49:31;;;;;;;1.37;0.70;;;20.30;78.90;;;;;;6246708;23;20402;-71
2022/06/29 03:51:58;;;;;;;0.73;0.67;;;20.40;78.80;;;;;;6246654;22;20800;-71
2022/06/29 03:54:26;;;;;;;0.80;0.77;;;20.30;79.00;;;;;;6246717;23;20441;-73
2022/06/29 03:56:52;;;;;;;0.87;0.73;;;20.40;79.00;;;;;;6246708;23;20403;-74
2022/06/29 03:59:19;;;;;;;0.70;0.70;;;20.40;78.90;;;;;;6246647;23;20437;-74
2022/06/29 04:01:46;;;;;;;0.77;0.77;;;20.50;78.80;;;;;;6246236;22;20450;-74
2022/06/29 04:04:13;;;;;;;0.70;0.70;;;20.50;78.70;;;;;;6246741;23;20421;-74
2022/06/29 04:06:39;;;;;;;0.70;0.70;;;20.50;78.60;;;;;;6246631;23;20436;-72
2022/06/29 04:09:06;;;;;;;0.70;0.70;;;20.60;78.50;;;;;;6246240;23;20899;-71
2022/06/29 04:11:52;;;;;;;0.90;0.70;;;20.60;78.50;;;;;;6247224;22;20452;-71
2022/06/29 04:14:19;;;;;;;0.70;0.70;;;20.60;78.40;;;;;;6246535;23;20394;-71
2022/06/29 04:16:46;;;;;;;0.70;0.70;;;20.60;78.30;;;;;;6246527;23;20480;-71
2022/06/29 04:19:13;;;;;;;0.70;0.63;;;20.60;78.30;;;;;;6246460;23;20406;-71
2022/06/29 04:21:40;;;;;;;0.70;0.63;;;20.70;78.20;;;;;;6247258;22;20492;-71
2022/06/29 04:24:07;;;;;;;0.70;0.60;;;20.70;78.20;;;;;;6246454;23;20402;-71
2022/06/29 04:26:35;;;;;;;0.73;0.73;;;20.70;78.30;;;;;;6246466;23;20406;-71
2022/06/29 04:29:02;;;;;;;0.70;0.70;;;20.80;78.20;;;;;;6246400;23;20472;-71
2022/06/29 04:31:29;;;;;;;0.70;0.67;;;20.80;78.20;;;;;;6246289;22;20422;-71
2022/06/29 04:33:56;;;;;;;0.70;0.60;;;20.90;77.90;;;;;;6246388;23;20406;-71
2022/06/29 04:36:23;;;;;;;0.70;0.70;;;20.90;77.90;;;;;;6246351;23;20580;-71
2022/06/29 04:38:49;;;;;;;0.90;0.77;;;20.80;78.10;;;;;;6246268;23;20534;-71
2022/06/29 04:41:16;;;;;;;0.80;0.80;;;20.60;78.40;;;;;;6246157;22;20422;-71
2022/06/29 04:43:44;;;;;;;1.47;0.80;;;20.40;79.10;;;;;;6246281;23;20403;-71
2022/06/29 04:46:20;;;;;;;0.90;0.67;;;20.50;79.00;;;;;;6246290;23;20401;-71
2022/06/29 04:48:47;;;;;;;0.73;0.70;;;20.50;78.90;;;;;;6246293;23;20382;-71
2022/06/29 04:51:15;;;;;;;0.70;0.70;;;20.20;79.30;;;;;;6246774;22;20711;-71
2022/06/29 04:53:42;;;;;;;0.80;0.80;;;20.20;79.90;;;;;;6246161;23;20406;-71
2022/06/29 04:56:09;;;;;;;0.87;0.80;;;20.10;80.20;;;;;;6246242;23;20402;-71
2022/06/29 04:58:36;;;;;;;0.80;0.80;;;20.20;79.90;;;;;;6246244;23;20402;-71
2022/06/29 05:01:04;;;;;;;0.80;0.70;;;20.40;79.40;;;;;;6246090;22;20418;-71
2022/06/29 05:03:31;;;;;;;1.10;0.90;;;20.60;79.00;;;;;;6245665;23;20446;-71
2022/06/29 05:05:57;;;;;;;0.70;0.70;;;20.70;78.90;;;;;;6246277;23;20452;-72
2022/06/29 05:08:24;;;;;;;0.90;0.70;;;20.80;78.90;;;;;;6245857;23;20778;-71
2022/06/29 05:10:51;;;;;;;0.80;0.70;;;20.90;78.70;;;;;;6246122;22;20426;-71
2022/06/29 05:13:17;;;;;;;1.00;0.90;;;21.10;78.50;;;;;;6246180;23;20398;-71
2022/06/29 05:15:44;;;;;;;1.10;0.80;;;21.20;78.20;;;;;;6246152;23;20406;-72
2022/06/29 05:18:12;;;;;;;0.80;0.80;;;21.30;78.20;;;;;;6246122;23;20402;-71
2022/06/29 05:20:39;;;;;;;0.80;0.70;;;21.40;77.90;;;;;;6246012;22;20406;-71
2022/06/29 05:23:05;;;;;;;0.70;0.70;;;21.40;78.00;;;;;;6246797;23;20445;-71
2022/06/29 05:25:32;;;;;;;1.17;0.70;;;21.50;77.90;;;;;;6248522;23;20409;-72
2022/06/29 05:27:59;;;;;;;0.80;0.77;;;21.50;77.80;;;;;;6248501;23;20406;-71
2022/06/29 05:30:25;;;;;;;1.03;0.80;;;21.60;77.90;;;;;;6248081;22;20467;-70
2022/06/29 05:32:52;;;;;;;0.70;0.70;;;21.60;78.20;;;;;;6248078;23;20452;-71
2022/06/29 05:35:20;;;;;;;0.77;0.70;;;21.40;78.90;;;;;;6248072;23;20398;-72
2022/06/29 05:37:47;;;;;;;0.80;0.80;;;20.80;80.00;;;;;;6248002;23;20456;-72
2022/06/29 05:40:14;;;;;;;0.80;0.70;;;20.70;80.90;;;;;;6248060;23;20402;-71
2022/06/29 05:42:40;;;;;;;0.80;0.70;;;20.80;80.40;;;;;;6247778;22;20442;-71
2022/06/29 05:45:08;;;;;;;0.70;0.70;;;20.70;80.70;;;;;;6247622;23;20406;-72
2022/06/29 05:47:35;;;;;;;0.70;0.70;;;20.50;82.00;;;;;;6248006;23;20441;-73
2022/06/29 05:50:01;;;;;;;0.80;0.80;;;20.60;82.10;;;;;;6248257;23;20407;-73
2022/06/29 05:52:29;;;;;;;0.70;0.70;;;20.80;81.90;;;;;;6247490;22;20761;-73
2022/06/29 05:54:57;;;;;;;0.80;0.77;;;21.10;81.10;;;;;;6247884;23;20456;-74
2022/06/29 05:57:24;;;;;;;0.80;0.70;;;21.30;79.90;;;;;;6247734;23;20433;-73
2022/06/29 05:59:50;;;;;;;0.70;0.70;;;21.50;79.00;;;;;;6247801;23;20402;-73
2022/06/29 06:02:17;;;;;;;0.70;0.70;;;21.50;79.50;;;;;;6247281;22;20450;-72
2022/06/29 06:04:44;;;;;;;0.70;0.70;;;21.40;79.70;;;;;;6247823;23;20402;-72
2022/06/29 06:07:10;;;;;;;0.77;0.77;;;21.70;79.50;;;;;;6247708;23;20782;-73
2022/06/29 06:09:38;;;;;;;0.80;0.70;;;21.70;79.00;;;;;;6247674;23;20460;-73
2022/06/29 06:12:05;;;;;;;0.80;0.70;;;22.10;77.80;;;;;;6247509;22;20426;-72
2022/06/29 06:14:32;;;;;;;0.70;0.70;;;22.40;76.00;;;;;;6247503;23;20489;-72
2022/06/29 06:16:59;;;;;;;0.70;0.70;;;22.60;74.10;;;;;;6247483;23;20411;-73
2022/06/29 06:19:25;;;;;;;0.80;0.70;;;22.40;74.90;;;;;;6247548;23;20402;-72
2022/06/29 06:21:52;;;;;;;1.20;0.77;;;22.20;75.00;;;;;;6247444;22;20430;-73
2022/06/29 06:24:19;;;;;;;0.73;0.70;;;22.20;73.80;;;;;;6247565;23;20489;-72
2022/06/29 06:26:47;;;;;;;0.80;0.80;;;22.40;74.10;;;;;;6247541;23;20835;-72
2022/06/29 06:29:14;;;;;;;0.80;0.80;;;22.40;75.50;;;;;;6247176;23;20954;-72
2022/06/29 06:31:40;;;;;;;0.70;0.60;;;22.40;74.80;;;;;;6247026;22;20422;-72
2022/06/29 06:34:07;;;;;;;1.00;0.80;;;22.50;75.90;;;;;;6247231;23;20414;-73
2022/06/29 06:36:33;;;;;;;0.70;0.70;;;22.70;75.60;;;;;;6247375;23;20453;-73
2022/06/29 06:39:00;;;;;;;0.80;0.80;;;22.90;74.90;;;;;;6247406;23;20410;-73
2022/06/29 06:41:26;;;;;;;0.70;0.70;;;23.20;73.90;;;;;;6246954;22;20427;-72
2022/06/29 06:43:55;;;;;;;1.37;0.80;;;23.40;73.00;;;;;;6247174;23;20441;-73
2022/06/29 06:46:23;;;;;;;0.90;0.90;;;23.70;72.40;;;;;;6247281;23;20180;-73
2022/06/29 06:48:50;;;;;;;0.90;0.67;;;23.80;71.20;;;;;;6246929;23;20969;-73
2022/06/29 06:51:18;;;;;;;0.70;0.70;;;24.00;70.80;;;;;;6247290;22;20425;-72
2022/06/29 06:53:45;;;;;;;0.70;0.70;;;24.00;70.50;;;;;;6246795;23;20749;-72
2022/06/29 06:56:11;;;;;;;0.70;0.70;;;23.70;71.10;;;;;;6247137;23;20460;-72
2022/06/29 06:58:38;;;;;;;0.87;0.83;;;23.90;72.20;;;;;;6247138;23;20453;-72
2022/06/29 07:01:07;;;;;;;0.70;0.70;;;24.20;70.00;;;;;;6247112;22;20426;-72
2022/06/29 07:03:36;;;;;;;0.70;0.60;;;24.30;70.00;;;;;;6246775;23;21012;-73
2022/06/29 07:06:04;;;;;;;0.80;0.80;;;24.70;69.60;;;;;;6247230;23;20437;-72
2022/06/29 07:08:31;;;;;;;0.70;0.70;;;25.00;70.20;;;;;;6247125;23;20496;-72
2022/06/29 07:10:58;;;;;;;1.17;0.80;;;25.00;68.20;;;;;;6247122;22;20826;-73
2022/06/29 07:13:24;;;;;;;0.70;0.70;;;24.70;68.40;;;;;;6247084;23;20410;-72
2022/06/29 07:15:51;;;;;;;0.70;0.70;;;24.40;69.70;;;;;;6247990;23;20406;-73
2022/06/29 07:18:19;;;;;;;0.80;0.80;;;24.30;70.60;;;;;;6247544;23;20402;-73
2022/06/29 07:20:46;;;;;;;1.17;0.80;;;24.30;70.70;;;;;;6247213;22;20426;-74
2022/06/29 07:23:13;;;;;;;0.90;0.80;;;24.50;69.80;;;;;;6246898;23;20434;-74
2022/06/29 07:25:40;;;;;;;0.70;0.70;;;24.20;70.30;;;;;;6247516;23;20402;-73
2022/06/29 07:28:06;;;;;;;0.70;0.70;;;24.30;69.00;;;;;;6247843;23;20411;-74
2022/06/29 07:30:33;;;;;;;0.80;0.80;;;23.90;69.90;;;;;;6247651;22;20408;-74
2022/06/29 07:33:00;;;;;;;0.80;0.80;;;23.80;70.40;;;;;;6247230;23;20394;-74
2022/06/29 07:35:28;;;;;;;0.70;0.70;;;24.10;71.00;;;;;;6247498;23;20414;-74
2022/06/29 07:37:54;;;;;;;1.17;0.80;;;24.30;69.40;;;;;;6247785;23;20402;-73
2022/06/29 07:40:21;;;;;;;0.70;0.60;;;24.50;70.10;;;;;;6247130;23;20464;-74
2022/06/29 07:42:48;;;;;;;0.80;0.77;;;24.50;68.50;;;;;;6247069;23;20595;-73
2022/06/29 07:45:15;;;;;;;0.80;0.80;;;24.60;67.80;;;;;;6246177;23;20899;-74
2022/06/29 07:47:42;;;;;;;0.80;0.80;;;24.70;69.10;;;;;;6247066;23;20406;-74
2022/06/29 07:50:11;;;;;;;0.70;0.70;;;25.00;68.70;;;;;;6247731;23;20402;-74
2022/06/29 07:52:40;;;;;;;0.80;0.70;;;25.10;67.20;;;;;;6246888;22;20509;-74
2022/06/29 07:55:07;;;;;;;0.97;0.87;;;25.10;67.90;;;;;;6246527;23;20899;-74
2022/06/29 07:57:34;;;;;;;0.70;0.70;;;25.30;66.70;;;;;;6246849;23;20460;-74
2022/06/29 08:00:00;;;;;;;1.27;0.70;;;25.20;66.90;;;;;;6246608;23;20468;-74
2022/06/29 08:02:27;;;;;;;0.70;0.70;;;25.60;67.90;;;;;;6246308;22;20512;-75
2022/06/29 08:04:54;;;;;;;0.70;0.70;;;25.70;66.10;;;;;;6246837;23;20411;-74
2022/06/29 08:07:20;;;;;;;0.70;0.70;;;25.60;67.00;;;;;;6246897;23;20459;-75
2022/06/29 08:09:49;;;;;;;0.80;0.80;;;25.40;66.00;;;;;;6246655;23;20402;-75
2022/06/29 08:12:16;;;;;;;0.70;0.70;;;25.50;66.10;;;;;;6246686;22;20473;-74
2022/06/29 08:14:43;;;;;;;0.73;0.70;;;25.70;67.40;;;;;;6246747;23;20407;-74
2022/06/29 08:17:10;;;;;;;0.70;0.70;;;25.90;65.90;;;;;;6246649;23;20403;-74
2022/06/29 08:19:36;;;;;;;1.00;1.00;;;25.90;65.00;;;;;;6246343;23;20406;-74
2022/06/29 08:22:03;;;;;;;0.70;0.70;;;25.70;65.50;;;;;;6246598;22;20421;-75
2022/06/29 08:24:30;;;;;;;0.90;0.70;;;25.50;66.10;;;;;;6246517;23;20442;-75
2022/06/29 08:26:58;;;;;;;0.90;0.73;;;25.60;65.40;;;;;;6246376;23;20729;-75
2022/06/29 08:29:24;;;;;;;0.87;0.87;;;25.60;66.50;;;;;;6246569;23;20455;-74
2022/06/29 08:31:51;;;;;;;0.80;0.80;;;26.00;64.70;;;;;;6246575;22;20472;-74
2022/06/29 08:34:18;;;;;;;0.80;0.80;;;26.10;65.00;;;;;;6246457;23;20398;-74
2022/06/29 08:36:44;;;;;;;0.70;0.70;;;26.20;63.90;;;;;;6246397;23;20410;-74
2022/06/29 08:39:11;;;;;;;0.80;0.80;;;26.40;65.00;;;;;;6246772;23;20452;-74
2022/06/29 08:41:40;;;;;;;0.70;0.70;;;26.60;64.20;;;;;;6246487;22;20422;-75
2022/06/29 08:44:08;;;;;;;1.00;0.90;;;26.40;64.80;;;;;;6246292;23;20488;-75
2022/06/29 08:46:35;;;;;;;0.70;0.70;;;26.50;63.40;;;;;;6247145;23;20442;-72
2022/06/29 08:49:03;;;;;;;0.70;0.67;;;26.60;62.70;;;;;;6246219;23;20402;-75
2022/06/29 08:51:34;;;;;;;0.70;0.70;;;26.70;63.00;;;;;;6246560;22;20434;-74
2022/06/29 08:54:02;;;;;;;0.80;0.70;;;26.80;62.50;;;;;;6246977;23;20421;-73
2022/06/29 08:56:30;;;;;;;0.80;0.70;;;26.80;63.10;;;;;;6246691;23;20884;-73
2022/06/29 08:58:57;;;;;;;0.70;0.70;;;26.70;64.10;;;;;;6246783;23;20440;-73
2022/06/29 09:01:25;;;;;;;0.80;0.80;;;26.30;64.10;;;;;;6246451;22;20946;-74
2022/06/29 09:03:52;;;;;;;0.70;0.70;;;26.30;64.60;;;;;;6247083;23;20480;-73
2022/06/29 09:06:19;;;;;;;0.70;0.70;;;26.50;63.90;;;;;;6246988;23;20406;-73
2022/06/29 09:08:46;;;;;;;0.70;0.67;;;26.60;65.30;;;;;;6246954;23;20402;-73
2022/06/29 09:11:24;;;;;;;0.80;0.70;;;26.60;65.00;;;;;;6246552;22;20476;-74
2022/06/29 09:14:09;;;;;;;0.73;0.73;;;26.80;64.00;;;;;;6248263;23;20448;-72
2022/06/29 09:16:58;;;;;;;0.80;0.70;;;27.00;62.70;;;;;;6246524;23;20395;-73
2022/06/29 09:19:28;;;;;;;0.70;0.70;;;26.80;63.70;;;;;;6246033;23;20391;-73
2022/06/29 09:21:57;;;;;;;1.00;0.73;;;27.00;63.50;;;;;;6246399;22;20426;-73
2022/06/29 09:24:25;;;;;;;0.90;0.77;;;27.20;65.10;;;;;;6246288;23;20488;-73
2022/06/29 09:26:55;;;;;;;0.70;0.70;;;27.50;62.00;;;;;;6246685;23;20479;-74
2022/06/29 09:29:24;;;;;;;0.90;0.80;;;27.70;61.50;;;;;;6246771;23;20410;-73
2022/06/29 09:32:13;;;;;;;0.70;0.70;;;27.60;61.50;;;;;;6246586;22;20587;-74
2022/06/29 09:34:41;;;;;;;0.70;0.60;;;27.70;61.60;;;;;;6246235;23;20918;-73
2022/06/29 09:37:10;;;;;;;0.70;0.60;;;27.70;60.10;;;;;;6246506;23;20402;-74
2022/06/29 09:39:38;;;;;;;0.70;0.67;;;27.60;59.80;;;;;;6246644;23;20406;-73
2022/06/29 09:42:06;;;;;;;0.80;0.77;;;27.50;61.80;;;;;;6246358;22;20426;-74
2022/06/29 09:44:33;;;;;;;0.70;0.70;;;27.50;62.30;;;;;;6246945;23;21012;-73
2022/06/29 09:47:03;;;;;;;0.80;0.80;;;27.50;62.20;;;;;;6246182;23;20460;-72
2022/06/29 09:49:33;;;;;;;0.93;0.90;;;27.50;62.20;;;;;;6246166;23;20760;-71
2022/06/29 09:52:02;;;;;;;1.00;0.90;;;27.40;62.50;;;;;;6245721;22;20942;-73
2022/06/29 09:54:33;;;;;;;0.80;0.70;;;27.40;62.50;;;;;;6245904;23;20914;-73
2022/06/29 09:57:01;;;;;;;1.60;1.20;;;27.40;62.50;;;;;;6246242;23;20391;-73
2022/06/29 10:02:36;;;;;;;0.80;0.80;;;27.20;63.30;;;;;;6245976;22;20976;-73
2022/06/29 10:05:07;;;;;;;0.70;0.70;;;27.00;62.90;;;;;;6247851;23;20741;-74
2022/06/29 10:07:37;;;;;;;0.80;0.80;;;27.00;65.60;;;;;;6246631;23;20386;-73
2022/06/29 10:10:06;;;;;;;0.93;0.73;;;26.90;64.30;;;;;;6247973;23;20408;-73
2022/06/29 10:16:00;;;;;;;1.03;0.93;;;26.80;64.60;;;;;;6248051;23;20362;-74
2022/06/29 10:18:48;;;;;;;1.23;0.70;;;27.20;64.60;;;;;;6247963;23;20482;-73
2022/06/29 10:21:19;;;;;;;0.90;0.83;;;27.40;64.00;;;;;;6247833;22;20422;-73
2022/06/29 10:23:47;;;;;;;0.80;0.73;;;27.70;64.60;;;;;;6247820;23;20430;-73
2022/06/29 10:26:40;;;;;;;0.70;0.70;;;27.70;63.60;;;;;;6247733;23;20402;-74
2022/06/29 10:29:28;;;;;;;0.73;0.63;;;27.50;63.80;;;;;;6247651;23;20402;-72
2022/06/29 10:32:12;;;;;;;0.80;0.80;;;27.40;63.30;;;;;;6247535;22;20509;-73
2022/06/29 10:37:26;;;;;;;0.90;0.80;;;26.90;64.90;;;;;;6247768;23;20421;-73
2022/06/29 10:39:58;;;;;;;1.00;0.80;;;26.80;65.10;;;;;;6247438;23;20463;-73
2022/06/29 10:45:24;;;;;;;0.80;0.80;;;27.00;64.00;;;;;;6247590;23;20369;-72
2022/06/29 10:48:31;;;;;;;1.10;0.80;;;27.20;64.90;;;;;;6247084;23;20501;-72
2022/06/29 10:50:57;;;;;;;0.70;0.70;;;27.10;65.20;;;;;;6247052;22;20422;-73
2022/06/29 10:53:25;;;;;;;0.70;0.67;;;27.20;65.00;;;;;;6247124;23;20398;-73
2022/06/29 10:55:55;;;;;;;0.83;0.80;;;27.30;65.00;;;;;;6247398;23;20405;-72
2022/06/29 10:58:23;;;;;;;1.23;0.80;;;27.50;64.90;;;;;;6247440;23;20456;-72
2022/06/29 11:00:53;;;;;;;1.20;0.70;;;27.50;63.90;;;;;;6248595;22;20433;-74
2022/06/29 11:03:22;;;;;;;0.80;0.77;;;27.50;65.80;;;;;;6247361;23;20476;-74
2022/06/29 11:15:39;;;;;;;1.10;0.90;;;28.10;64.10;;;;;;6247666;23;20366;-74
2022/06/29 11:16:55;;;;;;;1.30;0.80;;;28.20;62.40;;;;;;6246818;23;20410;-74
2022/06/29 11:19:27;;;;;;;0.70;0.70;;;28.10;62.30;;;;;;6247064;23;20994;-74
2022/06/29 11:22:16;;;;;;;0.90;0.83;;;27.60;62.50;;;;;;6247444;22;20458;-74
2022/06/29 11:24:58;;;;;;;0.80;0.80;;;27.10;64.50;;;;;;6247739;23;20438;-73
2022/06/29 11:27:38;;;;;;;1.13;0.90;;;27.20;64.80;;;;;;6248039;23;20394;-74
2022/06/29 11:30:08;;;;;;;0.90;0.70;;;27.20;64.50;;;;;;6247509;23;20406;-74
2022/06/29 11:32:41;;;;;;;0.80;0.80;;;27.30;64.20;;;;;;6247028;22;20452;-74
2022/06/29 11:35:09;;;;;;;0.90;0.60;;;27.50;64.40;;;;;;6247091;23;20390;-73
2022/06/29 11:37:36;;;;;;;0.80;0.70;;;27.60;63.60;;;;;;6247026;23;20411;-74
2022/06/29 11:40:05;;;;;;;0.70;0.70;;;27.60;64.10;;;;;;6247016;23;20409;-73
2022/06/29 11:45:13;;;;;;;0.80;0.80;;;27.30;65.00;;;;;;6226969;23;21016;-73
2022/06/29 11:47:50;;;;;;;0.80;0.80;;;27.20;65.00;;;;;;6247339;23;20791;-74
2022/06/29 11:50:17;;;;;;;0.80;0.80;;;27.40;65.20;;;;;;6247142;23;20394;-73
2022/06/29 11:52:46;;;;;;;0.80;0.70;;;27.60;65.60;;;;;;6246861;22;20429;-74
2022/06/29 11:55:14;;;;;;;0.90;0.70;;;27.70;63.80;;;;;;6246530;23;20885;-72
2022/06/29 11:57:41;;;;;;;0.80;0.80;;;27.70;63.10;;;;;;6247057;23;20406;-74
2022/06/29 12:00:09;;;;;;;0.87;0.87;;;27.60;63.80;;;;;;6246728;23;20407;-74
2022/06/29 12:02:36;;;;;;;0.80;0.60;;;27.90;65.00;;;;;;6247295;22;20449;-73
2022/06/29 12:05:04;;;;;;;0.80;0.73;;;28.00;62.80;;;;;;6246943;23;20442;-73
2022/06/29 12:07:31;;;;;;;0.80;0.70;;;28.10;63.10;;;;;;6247431;23;20500;-73
2022/06/29 12:09:59;;;;;;;0.80;0.70;;;28.50;62.40;;;;;;6247086;23;20472;-74
2022/06/29 12:12:27;;;;;;;0.70;0.63;;;28.70;61.70;;;;;;6246633;22;20430;-73
2022/06/29 12:14:53;;;;;;;0.77;0.77;;;28.90;61.90;;;;;;6247458;23;20421;-73
2022/06/29 12:17:20;;;;;;;0.80;0.80;;;29.00;59.30;;;;;;6246860;23;20409;-73
2022/06/29 12:19:47;;;;;;;0.70;0.70;;;28.80;60.10;;;;;;6246946;23;20493;-73
2022/06/29 12:22:14;;;;;;;0.93;0.70;;;28.30;62.30;;;;;;6246979;22;20426;-73
2022/06/29 12:24:40;;;;;;;0.80;0.80;;;28.20;62.50;;;;;;6246687;23;20433;-73
2022/06/29 12:27:07;;;;;;;0.80;0.70;;;27.70;61.80;;;;;;6246712;23;20406;-72
2022/06/29 12:29:35;;;;;;;0.70;0.60;;;27.40;62.90;;;;;;6246811;23;20402;-74
2022/06/29 12:32:02;;;;;;;0.90;0.70;;;27.30;63.40;;;;;;6246089;22;21040;-74
2022/06/29 12:34:29;;;;;;;0.80;0.70;;;27.30;63.20;;;;;;6246517;23;20406;-74
2022/06/29 12:36:55;;;;;;;0.80;0.80;;;27.40;63.70;;;;;;6247332;23;20461;-73
2022/06/29 12:39:22;;;;;;;1.10;0.70;;;27.50;64.00;;;;;;6246473;23;20432;-73
2022/06/29 12:41:49;;;;;;;0.80;0.70;;;27.70;63.60;;;;;;6246625;22;20425;-74
2022/06/29 12:44:15;;;;;;;0.70;0.70;;;27.90;63.60;;;;;;6246900;23;20442;-74
2022/06/29 12:46:43;;;;;;;0.70;0.70;;;27.50;62.80;;;;;;6247046;23;20460;-75
2022/06/29 12:49:10;;;;;;;0.90;0.70;;;27.30;63.10;;;;;;6246942;23;20780;-75
2022/06/29 12:51:37;;;;;;;1.53;0.70;;;27.50;63.10;;;;;;6246704;22;20556;-73
2022/06/29 12:54:04;;;;;;;0.70;0.70;;;27.60;61.90;;;;;;6247065;23;20403;-73
2022/06/29 12:56:31;;;;;;;0.70;0.70;;;27.90;61.90;;;;;;6246847;23;20410;-73
2022/06/29 12:58:57;;;;;;;0.80;0.80;;;28.00;63.10;;;;;;6246783;23;20402;-73
2022/06/29 13:01:24;;;;;;;1.73;0.97;;;28.20;62.10;;;;;;6247280;22;20430;-74
2022/06/29 13:03:52;;;;;;;0.90;0.77;;;28.30;62.40;;;;;;6246871;23;20464;-73
2022/06/29 13:06:19;;;;;;;1.07;0.70;;;28.40;61.00;;;;;;6246043;23;20796;-73
2022/06/29 13:08:45;;;;;;;1.27;0.90;;;28.60;60.90;;;;;;6246513;23;20468;-73
2022/06/29 13:11:12;;;;;;;1.07;0.97;;;28.60;59.90;;;;;;6246455;22;20744;-74
2022/06/29 13:13:40;;;;;;;0.80;0.80;;;28.10;61.80;;;;;;6246345;23;20900;-73
2022/06/29 13:16:07;;;;;;;0.80;0.70;;;28.30;61.40;;;;;;6246336;23;20746;-73
2022/06/29 13:18:33;;;;;;;1.17;0.80;;;28.50;60.70;;;;;;6246793;23;20429;-73
2022/06/29 13:21:02;;;;;;;0.70;0.60;;;28.70;61.70;;;;;;6246606;22;20426;-74
2022/06/29 13:23:29;;;;;;;0.80;0.67;;;28.70;59.30;;;;;;6246442;23;20887;-73
2022/06/29 13:25:55;;;;;;;0.80;0.70;;;28.40;60.00;;;;;;6246497;23;20492;-74
2022/06/29 13:28:23;;;;;;;0.70;0.60;;;28.40;58.80;;;;;;6246850;23;20642;-73
2022/06/29 13:30:50;;;;;;;0.70;0.70;;;28.50;60.30;;;;;;6247229;22;20437;-74
2022/06/29 13:33:16;;;;;;;0.90;0.70;;;28.10;61.30;;;;;;6246111;23;20460;-71
2022/06/29 13:35:44;;;;;;;0.83;0.80;;;27.60;63.00;;;;;;6246241;23;20453;-74
2022/06/29 13:38:13;;;;;;;0.80;0.70;;;27.60;62.00;;;;;;6246410;23;20406;-74
2022/06/29 13:40:40;;;;;;;0.70;0.70;;;27.70;61.80;;;;;;6246245;22;20489;-74
2022/06/29 13:43:07;;;;;;;0.80;0.80;;;27.90;61.40;;;;;;6245996;23;20958;-74
2022/06/29 13:45:33;;;;;;;0.70;0.67;;;28.10;61.70;;;;;;6247578;23;20822;-74
2022/06/29 13:48:00;;;;;;;0.80;0.70;;;28.30;61.80;;;;;;6248058;23;20402;-73
2022/06/29 13:50:27;;;;;;;0.80;0.70;;;28.50;60.80;;;;;;6247544;22;20725;-74
2022/06/29 13:52:56;;;;;;;0.80;0.70;;;28.50;59.60;;;;;;6247952;23;20497;-74
2022/06/29 13:55:24;;;;;;;0.70;0.70;;;28.80;60.50;;;;;;6248206;23;20440;-74
2022/06/29 13:57:50;;;;;;;0.70;0.70;;;28.80;59.70;;;;;;6247859;23;20409;-73
2022/06/29 14:00:18;;;;;;;0.77;0.73;;;29.00;60.40;;;;;;6248638;23;20410;-73
2022/06/29 14:02:45;;;;;;;0.80;0.80;;;29.10;58.20;;;;;;6247418;22;20965;-73
2022/06/29 14:05:12;;;;;;;0.70;0.70;;;29.20;57.50;;;;;;6247910;23;20515;-74
2022/06/29 14:07:38;;;;;;;0.80;0.70;;;29.30;56.90;;;;;;6247939;23;20456;-76
2022/06/29 14:10:06;;;;;;;0.70;0.60;;;29.50;56.70;;;;;;6248592;23;20406;-74
2022/06/29 14:12:34;;;;;;;0.70;0.70;;;29.40;57.10;;;;;;6247963;22;20970;-74
2022/06/29 14:15:00;;;;;;;0.70;0.60;;;29.60;58.20;;;;;;6248767;23;20890;-75
2022/06/29 14:17:27;;;;;;;1.10;1.00;;;29.90;56.00;;;;;;6248387;23;20456;-74
2022/06/29 14:19:54;;;;;;;0.70;0.70;;;30.20;57.20;;;;;;6247982;23;20433;-73
2022/06/29 14:22:20;;;;;;;0.70;0.63;;;30.50;56.00;;;;;;6248174;22;20483;-75
2022/06/29 14:24:47;;;;;;;0.80;0.60;;;30.80;54.90;;;;;;6248766;23;20476;-75
2022/06/29 14:27:14;;;;;;;0.90;0.70;;;31.00;54.80;;;;;;6248948;23;20406;-75
2022/06/29 14:29:42;;;;;;;0.80;0.63;;;31.00;55.20;;;;;;6247670;23;20403;-74
2022/06/29 14:32:09;;;;;;;0.73;0.60;;;31.10;55.10;;;;;;6247690;22;20441;-74
2022/06/29 14:34:36;;;;;;;0.80;0.70;;;31.20;53.90;;;;;;6247722;23;20413;-74
2022/06/29 14:37:03;;;;;;;0.70;0.60;;;31.20;54.50;;;;;;6248376;23;20780;-75
2022/06/29 14:39:29;;;;;;;0.70;0.60;;;31.20;53.50;;;;;;6248464;23;20402;-74
2022/06/29 14:41:56;;;;;;;1.20;0.63;;;31.10;53.60;;;;;;6248067;22;20479;-74
2022/06/29 14:44:23;;;;;;;0.70;0.63;;;31.30;54.30;;;;;;6247807;23;20402;-75
2022/06/29 14:46:51;;;;;;;0.70;0.60;;;30.80;53.50;;;;;;6247685;23;20433;-75
2022/06/29 14:49:17;;;;;;;0.70;0.70;;;30.70;54.60;;;;;;6248794;23;20784;-75
2022/06/29 14:51:45;;;;;;;0.80;0.70;;;30.50;54.50;;;;;;6248276;22;20422;-74
2022/06/29 14:54:11;;;;;;;0.77;0.77;;;30.50;55.00;;;;;;6248428;23;20438;-74
2022/06/29 14:56:38;;;;;;;0.80;0.73;;;30.20;55.00;;;;;;6247729;23;20410;-74
2022/06/29 14:59:05;;;;;;;0.90;0.50;;;30.00;55.00;;;;;;6247271;23;20391;-74
2022/06/29 15:01:32;;;;;;;0.87;0.70;;;29.30;56.30;;;;;;6247241;22;20446;-74
2022/06/29 15:04:00;;;;;;;0.80;0.80;;;28.90;57.90;;;;;;6247886;23;20386;-74
2022/06/29 15:06:27;;;;;;;0.80;0.70;;;29.10;58.90;;;;;;6247876;23;20446;-74
2022/06/29 15:08:53;;;;;;;0.70;0.70;;;29.40;59.30;;;;;;6247714;23;20960;-74
2022/06/29 15:11:20;;;;;;;0.80;0.70;;;29.50;58.10;;;;;;6247770;22;20422;-75
2022/06/29 15:13:47;;;;;;;0.80;0.70;;;29.70;57.40;;;;;;6249463;23;20895;-75
2022/06/29 15:16:13;;;;;;;1.10;0.80;;;29.70;58.20;;;;;;6247254;23;20464;-74
2022/06/29 15:18:41;;;;;;;0.73;0.70;;;30.00;57.90;;;;;;6247619;23;20786;-74
2022/06/29 15:21:09;;;;;;;0.90;0.70;;;30.30;57.60;;;;;;6247212;22;20796;-73
2022/06/29 15:23:35;;;;;;;0.70;0.63;;;30.60;56.30;;;;;;6247798;23;20460;-74
2022/06/29 15:26:02;;;;;;;0.70;0.63;;;30.90;55.20;;;;;;6247098;23;20437;-74
2022/06/29 15:28:28;;;;;;;0.83;0.83;;;31.20;56.20;;;;;;6247099;23;20406;-74
2022/06/29 15:30:55;;;;;;;0.73;0.63;;;31.10;55.50;;;;;;6246909;22;20430;-74
2022/06/29 15:39:00;;;;;;;1.00;0.70;;;30.10;57.50;;;;;;6193299;23;20759;-74
2022/06/29 15:41:26;;;;;;;0.97;0.70;;;30.10;57.20;;;;;;6247738;22;20422;-74
2022/06/29 15:43:53;;;;;;;0.70;0.70;;;30.20;57.00;;;;;;6247319;23;20456;-74
2022/06/29 15:46:20;;;;;;;0.70;0.70;;;30.40;56.70;;;;;;6246953;23;20434;-74
2022/06/29 15:48:47;;;;;;;0.70;0.70;;;30.50;55.20;;;;;;6246894;23;20457;-74
2022/06/29 15:51:13;;;;;;;0.70;0.60;;;30.60;55.80;;;;;;6246793;22;20943;-74
2022/06/29 15:56:26;;;;;;;1.73;0.80;;;30.30;57.00;;;;;;6247976;23;20365;-75
2022/06/29 15:58:52;;;;;;;0.80;0.70;;;30.00;56.70;;;;;;6247020;23;20406;-74
2022/06/29 16:01:19;;;;;;;1.00;0.70;;;29.90;56.90;;;;;;6246726;22;20481;-74
2022/06/29 16:03:45;;;;;;;0.70;0.70;;;29.90;56.80;;;;;;6246823;23;20394;-75
2022/06/29 16:06:12;;;;;;;0.70;0.60;;;29.80;57.30;;;;;;6246181;23;20442;-74
2022/06/29 16:08:39;;;;;;;0.70;0.70;;;29.80;58.40;;;;;;6246604;23;20406;-74
2022/06/29 16:11:05;;;;;;;0.70;0.60;;;29.90;57.70;;;;;;6246432;22;20429;-73
2022/06/29 16:13:33;;;;;;;0.90;0.70;;;30.00;57.40;;;;;;6246123;23;20814;-74
2022/06/29 16:16:00;;;;;;;0.70;0.67;;;30.00;57.50;;;;;;6246486;23;20448;-74
2022/06/29 16:18:27;;;;;;;0.80;0.73;;;29.90;57.40;;;;;;6246029;23;20480;-74
2022/06/29 16:20:54;;;;;;;1.40;0.80;;;29.80;57.90;;;;;;6246367;22;20465;-73
2022/06/29 16:23:21;;;;;;;0.70;0.70;;;29.80;57.60;;;;;;6246432;23;20406;-73
2022/06/29 16:25:47;;;;;;;1.13;0.70;;;29.90;57.30;;;;;;6246281;23;20438;-74